sensor_id;sensor_type;location;lat;lon;timestamp;P1;durP1;ratioP1;P2;durP2;ratioP2
15406;SDS011;7802;51.568;6.364;2022-11-14T00:01:30;5.90;;;5.30;;
15406;SDS011;7802;51.568;6.364;2022-11-14T00:04:36;6.10;;;5.50;;
15406;SDS011;7802;51.568;6.364;2022-11-14T00:07:42;6.47;;;5.87;;
15406;SDS011;7802;51.568;6.364;2022-11-14T00:10:49;6.13;;;5.53;;
15406;SDS011;7802;51.568;6.364;2022-11-14T00:13:55;6.30;;;5.70;;
15406;SDS011;7802;51.568;6.364;2022-11-14T00:17:00;6.13;;;5.57;;
15406;SDS011;7802;51.568;6.364;2022-11-14T00:20:07;6.50;;;5.90;;
15406;SDS011;7802;51.568;6.364;2022-11-14T00:23:15;6.17;;;5.63;;
15406;SDS011;7802;51.568;6.364;2022-11-14T00:26:21;6.83;;;5.77;;
15406;SDS011;7802;51.568;6.364;2022-11-14T00:29:26;6.57;;;5.87;;
15406;SDS011;7802;51.568;6.364;2022-11-14T00:32:32;6.77;;;6.17;;
15406;SDS011;7802;51.568;6.364;2022-11-14T00:35:37;6.57;;;5.97;;
15406;SDS011;7802;51.568;6.364;2022-11-14T00:38:43;6.47;;;5.63;;
15406;SDS011;7802;51.568;6.364;2022-11-14T00:42:00;6.50;;;5.90;;
15406;SDS011;7802;51.568;6.364;2022-11-14T00:45:06;6.57;;;5.97;;
15406;SDS011;7802;51.568;6.364;2022-11-14T00:48:12;6.23;;;5.63;;
15406;SDS011;7802;51.568;6.364;2022-11-14T00:51:17;6.27;;;5.70;;
15406;SDS011;7802;51.568;6.364;2022-11-14T00:54:23;7.00;;;6.30;;
15406;SDS011;7802;51.568;6.364;2022-11-14T00:57:30;6.63;;;6.03;;
15406;SDS011;7802;51.568;6.364;2022-11-14T01:00:36;7.00;;;5.90;;
15406;SDS011;7802;51.568;6.364;2022-11-14T01:03:42;9.50;;;6.57;;
15406;SDS011;7802;51.568;6.364;2022-11-14T01:06:50;7.27;;;6.53;;
15406;SDS011;7802;51.568;6.364;2022-11-14T01:09:56;7.20;;;6.50;;
15406;SDS011;7802;51.568;6.364;2022-11-14T01:13:03;7.43;;;6.73;;
15406;SDS011;7802;51.568;6.364;2022-11-14T01:16:08;8.43;;;6.57;;
15406;SDS011;7802;51.568;6.364;2022-11-14T01:19:14;7.13;;;6.43;;
15406;SDS011;7802;51.568;6.364;2022-11-14T01:22:19;7.97;;;6.73;;
15406;SDS011;7802;51.568;6.364;2022-11-14T01:25:25;8.47;;;6.53;;
15406;SDS011;7802;51.568;6.364;2022-11-14T01:28:31;7.03;;;6.33;;
15406;SDS011;7802;51.568;6.364;2022-11-14T01:31:36;6.87;;;6.17;;
15406;SDS011;7802;51.568;6.364;2022-11-14T01:34:42;7.73;;;7.03;;
15406;SDS011;7802;51.568;6.364;2022-11-14T01:37:48;8.63;;;7.03;;
15406;SDS011;7802;51.568;6.364;2022-11-14T01:40:53;7.80;;;7.00;;
15406;SDS011;7802;51.568;6.364;2022-11-14T01:43:58;7.60;;;6.80;;
15406;SDS011;7802;51.568;6.364;2022-11-14T01:47:04;7.70;;;6.83;;
15406;SDS011;7802;51.568;6.364;2022-11-14T01:50:10;8.80;;;7.47;;
15406;SDS011;7802;51.568;6.364;2022-11-14T01:53:15;7.90;;;7.10;;
15406;SDS011;7802;51.568;6.364;2022-11-14T01:56:21;8.33;;;7.43;;
15406;SDS011;7802;51.568;6.364;2022-11-14T01:59:33;8.33;;;7.53;;
15406;SDS011;7802;51.568;6.364;2022-11-14T02:02:41;8.87;;;7.70;;
15406;SDS011;7802;51.568;6.364;2022-11-14T02:05:47;10.20;;;8.43;;
15406;SDS011;7802;51.568;6.364;2022-11-14T02:08:54;8.87;;;7.83;;
15406;SDS011;7802;51.568;6.364;2022-11-14T02:12:02;9.00;;;8.10;;
15406;SDS011;7802;51.568;6.364;2022-11-14T02:15:10;9.83;;;7.83;;
15406;SDS011;7802;51.568;6.364;2022-11-14T02:18:16;11.17;;;9.87;;
15406;SDS011;7802;51.568;6.364;2022-11-14T02:21:22;12.93;;;10.63;;
15406;SDS011;7802;51.568;6.364;2022-11-14T02:24:28;13.33;;;10.00;;
15406;SDS011;7802;51.568;6.364;2022-11-14T02:27:33;13.27;;;10.80;;
15406;SDS011;7802;51.568;6.364;2022-11-14T02:30:40;12.60;;;10.53;;
15406;SDS011;7802;51.568;6.364;2022-11-14T02:33:45;11.63;;;10.07;;
15406;SDS011;7802;51.568;6.364;2022-11-14T02:36:52;13.57;;;10.50;;
15406;SDS011;7802;51.568;6.364;2022-11-14T02:39:57;12.10;;;9.77;;
15406;SDS011;7802;51.568;6.364;2022-11-14T02:43:03;12.57;;;9.97;;
15406;SDS011;7802;51.568;6.364;2022-11-14T02:46:09;13.93;;;11.00;;
15406;SDS011;7802;51.568;6.364;2022-11-14T02:49:15;12.87;;;10.47;;
15406;SDS011;7802;51.568;6.364;2022-11-14T02:52:21;10.87;;;9.33;;
15406;SDS011;7802;51.568;6.364;2022-11-14T02:55:27;15.30;;;9.87;;
15406;SDS011;7802;51.568;6.364;2022-11-14T02:58:33;11.20;;;9.10;;
15406;SDS011;7802;51.568;6.364;2022-11-14T03:01:38;10.93;;;9.00;;
15406;SDS011;7802;51.568;6.364;2022-11-14T03:04:44;12.70;;;10.33;;
15406;SDS011;7802;51.568;6.364;2022-11-14T03:07:52;12.40;;;9.43;;
15406;SDS011;7802;51.568;6.364;2022-11-14T03:11:02;12.47;;;9.73;;
15406;SDS011;7802;51.568;6.364;2022-11-14T03:14:08;11.93;;;9.97;;
15406;SDS011;7802;51.568;6.364;2022-11-14T03:17:13;11.80;;;9.87;;
15406;SDS011;7802;51.568;6.364;2022-11-14T03:20:19;14.77;;;10.67;;
15406;SDS011;7802;51.568;6.364;2022-11-14T03:23:25;12.43;;;10.03;;
15406;SDS011;7802;51.568;6.364;2022-11-14T03:26:30;13.93;;;10.10;;
15406;SDS011;7802;51.568;6.364;2022-11-14T03:29:36;11.70;;;9.20;;
15406;SDS011;7802;51.568;6.364;2022-11-14T03:32:41;11.87;;;10.20;;
15406;SDS011;7802;51.568;6.364;2022-11-14T03:35:47;11.53;;;10.30;;
15406;SDS011;7802;51.568;6.364;2022-11-14T03:38:54;13.33;;;10.47;;
15406;SDS011;7802;51.568;6.364;2022-11-14T03:42:00;12.83;;;10.57;;
15406;SDS011;7802;51.568;6.364;2022-11-14T03:45:05;13.60;;;10.83;;
15406;SDS011;7802;51.568;6.364;2022-11-14T03:48:11;12.20;;;10.87;;
15406;SDS011;7802;51.568;6.364;2022-11-14T03:51:17;14.63;;;10.70;;
15406;SDS011;7802;51.568;6.364;2022-11-14T03:54:23;15.63;;;11.63;;
15406;SDS011;7802;51.568;6.364;2022-11-14T03:57:29;13.30;;;11.10;;
15406;SDS011;7802;51.568;6.364;2022-11-14T04:00:34;13.97;;;10.70;;
15406;SDS011;7802;51.568;6.364;2022-11-14T04:03:39;11.47;;;10.27;;
15406;SDS011;7802;51.568;6.364;2022-11-14T04:06:45;13.90;;;11.33;;
15406;SDS011;7802;51.568;6.364;2022-11-14T04:09:52;13.20;;;10.93;;
15406;SDS011;7802;51.568;6.364;2022-11-14T04:12:57;12.20;;;10.90;;
15406;SDS011;7802;51.568;6.364;2022-11-14T04:16:02;12.10;;;10.80;;
15406;SDS011;7802;51.568;6.364;2022-11-14T04:19:08;13.77;;;10.83;;
15406;SDS011;7802;51.568;6.364;2022-11-14T04:22:14;13.60;;;10.77;;
15406;SDS011;7802;51.568;6.364;2022-11-14T04:25:20;17.67;;;12.03;;
15406;SDS011;7802;51.568;6.364;2022-11-14T04:28:25;16.70;;;12.27;;
15406;SDS011;7802;51.568;6.364;2022-11-14T04:31:30;16.40;;;11.97;;
15406;SDS011;7802;51.568;6.364;2022-11-14T04:34:36;15.60;;;12.07;;
15406;SDS011;7802;51.568;6.364;2022-11-14T04:37:42;15.00;;;11.23;;
15406;SDS011;7802;51.568;6.364;2022-11-14T04:40:48;15.37;;;12.17;;
15406;SDS011;7802;51.568;6.364;2022-11-14T04:43:54;13.57;;;11.77;;
15406;SDS011;7802;51.568;6.364;2022-11-14T04:46:59;16.93;;;12.70;;
15406;SDS011;7802;51.568;6.364;2022-11-14T04:50:05;14.53;;;11.40;;
15406;SDS011;7802;51.568;6.364;2022-11-14T04:53:11;18.03;;;12.47;;
15406;SDS011;7802;51.568;6.364;2022-11-14T04:56:17;15.30;;;11.97;;
15406;SDS011;7802;51.568;6.364;2022-11-14T04:59:26;15.13;;;12.00;;
15406;SDS011;7802;51.568;6.364;2022-11-14T05:02:32;15.17;;;12.50;;
15406;SDS011;7802;51.568;6.364;2022-11-14T05:05:37;15.93;;;12.43;;
15406;SDS011;7802;51.568;6.364;2022-11-14T05:08:46;14.70;;;11.47;;
15406;SDS011;7802;51.568;6.364;2022-11-14T05:11:52;16.27;;;12.23;;
15406;SDS011;7802;51.568;6.364;2022-11-14T05:14:58;15.10;;;11.53;;
15406;SDS011;7802;51.568;6.364;2022-11-14T05:18:04;17.70;;;13.27;;
15406;SDS011;7802;51.568;6.364;2022-11-14T05:21:10;16.70;;;11.90;;
15406;SDS011;7802;51.568;6.364;2022-11-14T05:24:17;14.20;;;12.03;;
15406;SDS011;7802;51.568;6.364;2022-11-14T05:27:23;15.10;;;12.20;;
15406;SDS011;7802;51.568;6.364;2022-11-14T05:30:29;18.20;;;13.10;;
15406;SDS011;7802;51.568;6.364;2022-11-14T05:33:34;14.63;;;11.73;;
15406;SDS011;7802;51.568;6.364;2022-11-14T05:36:40;16.07;;;13.03;;
15406;SDS011;7802;51.568;6.364;2022-11-14T05:39:45;16.73;;;11.90;;
15406;SDS011;7802;51.568;6.364;2022-11-14T05:42:57;17.70;;;12.70;;
15406;SDS011;7802;51.568;6.364;2022-11-14T05:46:03;16.63;;;13.43;;
15406;SDS011;7802;51.568;6.364;2022-11-14T05:49:10;16.37;;;13.57;;
15406;SDS011;7802;51.568;6.364;2022-11-14T05:52:15;18.37;;;13.87;;
15406;SDS011;7802;51.568;6.364;2022-11-14T05:55:21;21.53;;;15.73;;
15406;SDS011;7802;51.568;6.364;2022-11-14T05:58:33;21.37;;;16.87;;
15406;SDS011;7802;51.568;6.364;2022-11-14T06:01:39;20.57;;;16.33;;
15406;SDS011;7802;51.568;6.364;2022-11-14T06:04:44;18.87;;;14.87;;
15406;SDS011;7802;51.568;6.364;2022-11-14T06:07:53;17.50;;;14.20;;
15406;SDS011;7802;51.568;6.364;2022-11-14T06:11:03;18.30;;;13.63;;
15406;SDS011;7802;51.568;6.364;2022-11-14T06:14:10;14.87;;;11.87;;
15406;SDS011;7802;51.568;6.364;2022-11-14T06:17:16;17.00;;;13.23;;
15406;SDS011;7802;51.568;6.364;2022-11-14T06:20:22;17.67;;;14.27;;
15406;SDS011;7802;51.568;6.364;2022-11-14T06:23:28;19.87;;;14.77;;
15406;SDS011;7802;51.568;6.364;2022-11-14T06:26:33;20.07;;;15.73;;
15406;SDS011;7802;51.568;6.364;2022-11-14T06:29:39;21.90;;;16.10;;
15406;SDS011;7802;51.568;6.364;2022-11-14T06:32:44;24.07;;;16.90;;
15406;SDS011;7802;51.568;6.364;2022-11-14T06:35:49;20.30;;;14.97;;
15406;SDS011;7802;51.568;6.364;2022-11-14T06:38:55;20.97;;;14.93;;
15406;SDS011;7802;51.568;6.364;2022-11-14T06:42:00;21.73;;;14.17;;
15406;SDS011;7802;51.568;6.364;2022-11-14T06:45:07;17.87;;;14.33;;
15406;SDS011;7802;51.568;6.364;2022-11-14T06:48:13;20.90;;;14.97;;
15406;SDS011;7802;51.568;6.364;2022-11-14T06:51:19;20.73;;;14.53;;
15406;SDS011;7802;51.568;6.364;2022-11-14T06:54:24;22.63;;;15.77;;
15406;SDS011;7802;51.568;6.364;2022-11-14T06:57:30;22.13;;;14.67;;
15406;SDS011;7802;51.568;6.364;2022-11-14T07:00:36;21.27;;;15.47;;
15406;SDS011;7802;51.568;6.364;2022-11-14T07:03:42;22.97;;;16.40;;
15406;SDS011;7802;51.568;6.364;2022-11-14T07:06:48;21.03;;;15.23;;
15406;SDS011;7802;51.568;6.364;2022-11-14T07:09:53;21.53;;;15.70;;
15406;SDS011;7802;51.568;6.364;2022-11-14T07:13:00;19.73;;;15.40;;
15406;SDS011;7802;51.568;6.364;2022-11-14T07:16:06;20.50;;;16.20;;
15406;SDS011;7802;51.568;6.364;2022-11-14T07:19:12;19.77;;;15.30;;
15406;SDS011;7802;51.568;6.364;2022-11-14T07:22:17;20.00;;;14.10;;
15406;SDS011;7802;51.568;6.364;2022-11-14T07:25:23;19.83;;;15.43;;
15406;SDS011;7802;51.568;6.364;2022-11-14T07:28:28;20.13;;;14.73;;
15406;SDS011;7802;51.568;6.364;2022-11-14T07:31:36;19.40;;;13.50;;
15406;SDS011;7802;51.568;6.364;2022-11-14T07:34:42;17.27;;;13.67;;
15406;SDS011;7802;51.568;6.364;2022-11-14T07:37:47;17.13;;;13.00;;
15406;SDS011;7802;51.568;6.364;2022-11-14T07:40:53;20.10;;;14.30;;
15406;SDS011;7802;51.568;6.364;2022-11-14T07:44:04;22.40;;;15.73;;
15406;SDS011;7802;51.568;6.364;2022-11-14T07:47:10;23.83;;;15.80;;
15406;SDS011;7802;51.568;6.364;2022-11-14T07:50:15;20.77;;;15.60;;
15406;SDS011;7802;51.568;6.364;2022-11-14T07:53:24;24.43;;;16.47;;
15406;SDS011;7802;51.568;6.364;2022-11-14T07:56:30;19.77;;;14.57;;
15406;SDS011;7802;51.568;6.364;2022-11-14T07:59:35;20.23;;;15.03;;
15406;SDS011;7802;51.568;6.364;2022-11-14T08:02:42;22.30;;;16.20;;
15406;SDS011;7802;51.568;6.364;2022-11-14T08:05:47;25.03;;;15.07;;
15406;SDS011;7802;51.568;6.364;2022-11-14T08:08:52;20.20;;;14.73;;
15406;SDS011;7802;51.568;6.364;2022-11-14T08:11:58;21.73;;;14.97;;
15406;SDS011;7802;51.568;6.364;2022-11-14T08:15:04;22.53;;;15.83;;
15406;SDS011;7802;51.568;6.364;2022-11-14T08:18:11;19.63;;;14.20;;
15406;SDS011;7802;51.568;6.364;2022-11-14T08:21:16;19.63;;;15.00;;
15406;SDS011;7802;51.568;6.364;2022-11-14T08:24:22;20.67;;;14.90;;
15406;SDS011;7802;51.568;6.364;2022-11-14T08:27:27;19.20;;;15.17;;
15406;SDS011;7802;51.568;6.364;2022-11-14T08:30:33;23.33;;;17.13;;
15406;SDS011;7802;51.568;6.364;2022-11-14T08:33:39;23.37;;;17.00;;
15406;SDS011;7802;51.568;6.364;2022-11-14T08:36:45;24.13;;;16.50;;
15406;SDS011;7802;51.568;6.364;2022-11-14T08:39:51;26.47;;;17.37;;
15406;SDS011;7802;51.568;6.364;2022-11-14T08:42:59;23.30;;;15.73;;
15406;SDS011;7802;51.568;6.364;2022-11-14T08:46:05;18.10;;;14.33;;
15406;SDS011;7802;51.568;6.364;2022-11-14T08:49:11;16.87;;;13.13;;
15406;SDS011;7802;51.568;6.364;2022-11-14T08:52:17;15.33;;;12.47;;
15406;SDS011;7802;51.568;6.364;2022-11-14T08:55:22;20.20;;;13.47;;
15406;SDS011;7802;51.568;6.364;2022-11-14T08:58:28;20.07;;;13.20;;
15406;SDS011;7802;51.568;6.364;2022-11-14T09:01:35;16.63;;;12.33;;
15406;SDS011;7802;51.568;6.364;2022-11-14T09:04:41;16.27;;;11.93;;
15406;SDS011;7802;51.568;6.364;2022-11-14T09:07:46;14.77;;;11.30;;
15406;SDS011;7802;51.568;6.364;2022-11-14T09:10:52;15.67;;;12.00;;
15406;SDS011;7802;51.568;6.364;2022-11-14T09:13:57;14.80;;;11.50;;
15406;SDS011;7802;51.568;6.364;2022-11-14T09:17:04;17.27;;;12.47;;
15406;SDS011;7802;51.568;6.364;2022-11-14T09:20:11;17.93;;;12.83;;
15406;SDS011;7802;51.568;6.364;2022-11-14T09:23:19;17.53;;;13.30;;
15406;SDS011;7802;51.568;6.364;2022-11-14T09:26:25;16.83;;;12.63;;
15406;SDS011;7802;51.568;6.364;2022-11-14T09:29:30;19.20;;;13.47;;
15406;SDS011;7802;51.568;6.364;2022-11-14T09:32:35;17.20;;;13.70;;
15406;SDS011;7802;51.568;6.364;2022-11-14T09:35:41;16.93;;;13.33;;
15406;SDS011;7802;51.568;6.364;2022-11-14T09:38:46;19.70;;;14.13;;
15406;SDS011;7802;51.568;6.364;2022-11-14T09:41:56;18.70;;;13.37;;
15406;SDS011;7802;51.568;6.364;2022-11-14T09:45:17;24.03;;;13.77;;
15406;SDS011;7802;51.568;6.364;2022-11-14T09:48:23;18.20;;;13.07;;
15406;SDS011;7802;51.568;6.364;2022-11-14T09:51:38;19.77;;;14.53;;
15406;SDS011;7802;51.568;6.364;2022-11-14T09:54:50;20.27;;;14.20;;
15406;SDS011;7802;51.568;6.364;2022-11-14T09:57:59;21.07;;;13.90;;
15406;SDS011;7802;51.568;6.364;2022-11-14T10:01:07;21.03;;;14.77;;
15406;SDS011;7802;51.568;6.364;2022-11-14T10:04:18;24.90;;;14.37;;
15406;SDS011;7802;51.568;6.364;2022-11-14T10:07:30;22.20;;;15.40;;
15406;SDS011;7802;51.568;6.364;2022-11-14T10:10:47;18.70;;;14.10;;
15406;SDS011;7802;51.568;6.364;2022-11-14T10:14:18;21.63;;;15.00;;
15406;SDS011;7802;51.568;6.364;2022-11-14T10:17:42;25.17;;;14.73;;
15406;SDS011;7802;51.568;6.364;2022-11-14T10:20:56;21.47;;;14.23;;
15406;SDS011;7802;51.568;6.364;2022-11-14T10:24:11;20.40;;;14.30;;
15406;SDS011;7802;51.568;6.364;2022-11-14T10:27:28;22.60;;;14.97;;
15406;SDS011;7802;51.568;6.364;2022-11-14T10:30:38;22.20;;;14.13;;
15406;SDS011;7802;51.568;6.364;2022-11-14T10:33:49;18.10;;;14.33;;
15406;SDS011;7802;51.568;6.364;2022-11-14T10:37:02;19.60;;;14.30;;
15406;SDS011;7802;51.568;6.364;2022-11-14T10:40:15;18.83;;;14.10;;
15406;SDS011;7802;51.568;6.364;2022-11-14T10:43:23;21.77;;;14.30;;
15406;SDS011;7802;51.568;6.364;2022-11-14T10:46:33;20.73;;;14.13;;
15406;SDS011;7802;51.568;6.364;2022-11-14T10:49:43;20.50;;;14.17;;
15406;SDS011;7802;51.568;6.364;2022-11-14T10:52:51;20.60;;;13.47;;
15406;SDS011;7802;51.568;6.364;2022-11-14T10:56:00;18.80;;;13.57;;
15406;SDS011;7802;51.568;6.364;2022-11-14T10:59:09;19.00;;;13.87;;
15406;SDS011;7802;51.568;6.364;2022-11-14T11:02:14;18.67;;;12.47;;
15406;SDS011;7802;51.568;6.364;2022-11-14T11:05:21;18.87;;;13.80;;
15406;SDS011;7802;51.568;6.364;2022-11-14T11:08:29;19.50;;;13.03;;
15406;SDS011;7802;51.568;6.364;2022-11-14T11:11:55;19.47;;;13.27;;
15406;SDS011;7802;51.568;6.364;2022-11-14T11:15:12;18.30;;;12.47;;
15406;SDS011;7802;51.568;6.364;2022-11-14T11:18:24;21.90;;;14.30;;
15406;SDS011;7802;51.568;6.364;2022-11-14T11:21:31;19.00;;;13.93;;
15406;SDS011;7802;51.568;6.364;2022-11-14T11:24:52;17.93;;;12.57;;
15406;SDS011;7802;51.568;6.364;2022-11-14T11:28:03;14.43;;;11.77;;
15406;SDS011;7802;51.568;6.364;2022-11-14T11:31:10;20.27;;;12.03;;
15406;SDS011;7802;51.568;6.364;2022-11-14T11:34:16;14.77;;;10.90;;
15406;SDS011;7802;51.568;6.364;2022-11-14T11:37:26;14.10;;;10.97;;
15406;SDS011;7802;51.568;6.364;2022-11-14T11:40:38;12.80;;;10.17;;
15406;SDS011;7802;51.568;6.364;2022-11-14T11:43:48;16.07;;;9.63;;
15406;SDS011;7802;51.568;6.364;2022-11-14T11:47:02;11.87;;;9.80;;
15406;SDS011;7802;51.568;6.364;2022-11-14T11:50:13;13.53;;;10.20;;
15406;SDS011;7802;51.568;6.364;2022-11-14T11:53:21;12.87;;;9.60;;
15406;SDS011;7802;51.568;6.364;2022-11-14T11:56:33;12.73;;;9.40;;
15406;SDS011;7802;51.568;6.364;2022-11-14T11:59:41;12.77;;;9.63;;
15406;SDS011;7802;51.568;6.364;2022-11-14T12:02:50;12.97;;;9.80;;
15406;SDS011;7802;51.568;6.364;2022-11-14T12:06:01;12.10;;;9.67;;
15406;SDS011;7802;51.568;6.364;2022-11-14T12:09:18;12.10;;;10.03;;
15406;SDS011;7802;51.568;6.364;2022-11-14T12:12:29;14.73;;;9.80;;
15406;SDS011;7802;51.568;6.364;2022-11-14T12:15:56;12.43;;;9.87;;
15406;SDS011;7802;51.568;6.364;2022-11-14T12:19:27;12.63;;;9.70;;
15406;SDS011;7802;51.568;6.364;2022-11-14T12:26:53;12.93;;;9.20;;
15406;SDS011;7802;51.568;6.364;2022-11-14T12:30:09;13.57;;;10.00;;
15406;SDS011;7802;51.568;6.364;2022-11-14T12:33:20;12.67;;;10.10;;
15406;SDS011;7802;51.568;6.364;2022-11-14T12:36:29;14.60;;;10.97;;
15406;SDS011;7802;51.568;6.364;2022-11-14T12:39:37;15.10;;;10.93;;
15406;SDS011;7802;51.568;6.364;2022-11-14T12:42:44;13.07;;;8.97;;
15406;SDS011;7802;51.568;6.364;2022-11-14T12:45:54;13.43;;;9.57;;
15406;SDS011;7802;51.568;6.364;2022-11-14T12:49:02;10.53;;;8.63;;
15406;SDS011;7802;51.568;6.364;2022-11-14T12:52:49;12.23;;;9.93;;
15406;SDS011;7802;51.568;6.364;2022-11-14T12:56:03;11.13;;;9.27;;
15406;SDS011;7802;51.568;6.364;2022-11-14T12:59:39;12.37;;;9.73;;
15406;SDS011;7802;51.568;6.364;2022-11-14T13:03:02;14.33;;;9.60;;
15406;SDS011;7802;51.568;6.364;2022-11-14T13:06:21;14.83;;;10.07;;
15406;SDS011;7802;51.568;6.364;2022-11-14T13:09:32;11.77;;;9.60;;
15406;SDS011;7802;51.568;6.364;2022-11-14T13:12:40;16.00;;;10.30;;
15406;SDS011;7802;51.568;6.364;2022-11-14T13:16:04;12.10;;;10.00;;
15406;SDS011;7802;51.568;6.364;2022-11-14T13:19:44;12.87;;;10.03;;
15406;SDS011;7802;51.568;6.364;2022-11-14T13:26:52;13.20;;;9.93;;
15406;SDS011;7802;51.568;6.364;2022-11-14T13:29:58;12.10;;;10.47;;
15406;SDS011;7802;51.568;6.364;2022-11-14T13:33:06;13.83;;;10.77;;
15406;SDS011;7802;51.568;6.364;2022-11-14T13:36:13;12.87;;;10.13;;
15406;SDS011;7802;51.568;6.364;2022-11-14T13:39:31;14.73;;;10.87;;
15406;SDS011;7802;51.568;6.364;2022-11-14T13:42:48;14.10;;;10.97;;
15406;SDS011;7802;51.568;6.364;2022-11-14T13:46:04;12.47;;;10.13;;
15406;SDS011;7802;51.568;6.364;2022-11-14T13:49:26;12.03;;;10.33;;
15406;SDS011;7802;51.568;6.364;2022-11-14T13:52:42;15.20;;;10.83;;
15406;SDS011;7802;51.568;6.364;2022-11-14T13:55:54;13.77;;;10.70;;
15406;SDS011;7802;51.568;6.364;2022-11-14T14:02:54;15.17;;;11.17;;
15406;SDS011;7802;51.568;6.364;2022-11-14T14:06:25;12.63;;;10.47;;
15406;SDS011;7802;51.568;6.364;2022-11-14T14:09:45;12.57;;;10.07;;
15406;SDS011;7802;51.568;6.364;2022-11-14T14:13:00;13.87;;;11.20;;
15406;SDS011;7802;51.568;6.364;2022-11-14T14:16:16;15.00;;;11.20;;
15406;SDS011;7802;51.568;6.364;2022-11-14T14:19:33;15.00;;;11.50;;
15406;SDS011;7802;51.568;6.364;2022-11-14T14:22:48;14.90;;;10.80;;
15406;SDS011;7802;51.568;6.364;2022-11-14T14:26:01;13.43;;;10.10;;
15406;SDS011;7802;51.568;6.364;2022-11-14T14:29:18;19.10;;;12.37;;
15406;SDS011;7802;51.568;6.364;2022-11-14T14:32:27;13.07;;;10.40;;
15406;SDS011;7802;51.568;6.364;2022-11-14T14:35:34;17.10;;;12.20;;
15406;SDS011;7802;51.568;6.364;2022-11-14T14:38:45;15.37;;;12.27;;
15406;SDS011;7802;51.568;6.364;2022-11-14T14:41:53;18.00;;;12.37;;
15406;SDS011;7802;51.568;6.364;2022-11-14T14:45:02;15.33;;;11.83;;
15406;SDS011;7802;51.568;6.364;2022-11-14T14:48:11;17.37;;;13.37;;
15406;SDS011;7802;51.568;6.364;2022-11-14T14:51:28;18.40;;;12.43;;
15406;SDS011;7802;51.568;6.364;2022-11-14T14:54:34;17.93;;;13.43;;
15406;SDS011;7802;51.568;6.364;2022-11-14T14:57:40;17.87;;;13.30;;
15406;SDS011;7802;51.568;6.364;2022-11-14T15:00:49;17.47;;;13.60;;
15406;SDS011;7802;51.568;6.364;2022-11-14T15:03:56;17.97;;;13.97;;
15406;SDS011;7802;51.568;6.364;2022-11-14T15:07:14;17.70;;;13.70;;
15406;SDS011;7802;51.568;6.364;2022-11-14T15:10:24;18.83;;;13.40;;
15406;SDS011;7802;51.568;6.364;2022-11-14T15:13:32;20.93;;;13.57;;
15406;SDS011;7802;51.568;6.364;2022-11-14T15:47:33;18.03;;;14.10;;
15406;SDS011;7802;51.568;6.364;2022-11-14T16:05:29;20.80;;;13.67;;
15406;SDS011;7802;51.568;6.364;2022-11-14T16:08:50;19.77;;;13.80;;
15406;SDS011;7802;51.568;6.364;2022-11-14T16:11:55;17.43;;;13.50;;
15406;SDS011;7802;51.568;6.364;2022-11-14T16:25:00;18.97;;;13.13;;
15406;SDS011;7802;51.568;6.364;2022-11-14T16:28:32;19.43;;;14.13;;
15406;SDS011;7802;51.568;6.364;2022-11-14T16:31:38;20.33;;;14.33;;
15406;SDS011;7802;51.568;6.364;2022-11-14T16:34:44;18.43;;;13.43;;
15406;SDS011;7802;51.568;6.364;2022-11-14T16:37:50;21.50;;;13.73;;
15406;SDS011;7802;51.568;6.364;2022-11-14T16:40:58;18.20;;;13.47;;
15406;SDS011;7802;51.568;6.364;2022-11-14T16:44:04;19.20;;;14.60;;
15406;SDS011;7802;51.568;6.364;2022-11-14T16:47:10;18.93;;;14.70;;
15406;SDS011;7802;51.568;6.364;2022-11-14T16:50:18;20.23;;;14.70;;
15406;SDS011;7802;51.568;6.364;2022-11-14T16:53:23;21.83;;;14.67;;
15406;SDS011;7802;51.568;6.364;2022-11-14T16:56:30;17.00;;;14.07;;
15406;SDS011;7802;51.568;6.364;2022-11-14T16:59:35;16.97;;;13.60;;
15406;SDS011;7802;51.568;6.364;2022-11-14T17:02:40;17.83;;;13.13;;
15406;SDS011;7802;51.568;6.364;2022-11-14T17:05:46;18.93;;;14.53;;
15406;SDS011;7802;51.568;6.364;2022-11-14T17:08:53;18.60;;;14.23;;
15406;SDS011;7802;51.568;6.364;2022-11-14T17:12:00;17.17;;;13.50;;
15406;SDS011;7802;51.568;6.364;2022-11-14T17:15:06;19.33;;;13.70;;
15406;SDS011;7802;51.568;6.364;2022-11-14T17:18:12;20.17;;;14.40;;
15406;SDS011;7802;51.568;6.364;2022-11-14T17:21:32;18.17;;;13.73;;
15406;SDS011;7802;51.568;6.364;2022-11-14T17:24:38;18.57;;;14.40;;
15406;SDS011;7802;51.568;6.364;2022-11-14T17:27:44;19.40;;;14.20;;
15406;SDS011;7802;51.568;6.364;2022-11-14T17:30:52;17.97;;;13.83;;
15406;SDS011;7802;51.568;6.364;2022-11-14T17:33:57;18.33;;;13.93;;
15406;SDS011;7802;51.568;6.364;2022-11-14T17:37:03;17.23;;;14.03;;
15406;SDS011;7802;51.568;6.364;2022-11-14T17:40:09;16.87;;;13.53;;
15406;SDS011;7802;51.568;6.364;2022-11-14T17:43:22;19.03;;;13.93;;
15406;SDS011;7802;51.568;6.364;2022-11-14T17:46:27;18.70;;;13.57;;
15406;SDS011;7802;51.568;6.364;2022-11-14T17:49:33;16.63;;;13.20;;
15406;SDS011;7802;51.568;6.364;2022-11-14T17:52:38;17.93;;;13.67;;
15406;SDS011;7802;51.568;6.364;2022-11-14T17:55:44;18.20;;;14.40;;
15406;SDS011;7802;51.568;6.364;2022-11-14T17:58:51;17.97;;;14.00;;
15406;SDS011;7802;51.568;6.364;2022-11-14T18:01:57;14.77;;;12.77;;
15406;SDS011;7802;51.568;6.364;2022-11-14T18:05:05;18.40;;;14.10;;
15406;SDS011;7802;51.568;6.364;2022-11-14T18:08:11;17.90;;;13.20;;
15406;SDS011;7802;51.568;6.364;2022-11-14T18:15:13;17.10;;;12.87;;
15406;SDS011;7802;51.568;6.364;2022-11-14T18:18:18;17.27;;;13.77;;
15406;SDS011;7802;51.568;6.364;2022-11-14T18:21:24;16.77;;;13.60;;
15406;SDS011;7802;51.568;6.364;2022-11-14T18:24:30;17.10;;;13.33;;
15406;SDS011;7802;51.568;6.364;2022-11-14T18:27:36;18.10;;;13.37;;
15406;SDS011;7802;51.568;6.364;2022-11-14T18:30:42;16.03;;;13.03;;
15406;SDS011;7802;51.568;6.364;2022-11-14T18:33:59;17.60;;;13.30;;
15406;SDS011;7802;51.568;6.364;2022-11-14T18:37:06;19.17;;;14.03;;
15406;SDS011;7802;51.568;6.364;2022-11-14T18:40:11;17.73;;;13.90;;
15406;SDS011;7802;51.568;6.364;2022-11-14T18:43:21;14.17;;;12.57;;
15406;SDS011;7802;51.568;6.364;2022-11-14T18:46:27;15.50;;;13.10;;
15406;SDS011;7802;51.568;6.364;2022-11-14T18:49:42;17.13;;;12.20;;
15406;SDS011;7802;51.568;6.364;2022-11-14T18:52:48;15.80;;;12.73;;
15406;SDS011;7802;51.568;6.364;2022-11-14T18:55:54;16.90;;;13.00;;
15406;SDS011;7802;51.568;6.364;2022-11-14T18:59:00;18.23;;;12.60;;
15406;SDS011;7802;51.568;6.364;2022-11-14T19:02:07;17.57;;;13.93;;
15406;SDS011;7802;51.568;6.364;2022-11-14T19:05:38;17.87;;;13.90;;
15406;SDS011;7802;51.568;6.364;2022-11-14T19:09:09;16.57;;;12.70;;
15406;SDS011;7802;51.568;6.364;2022-11-14T19:12:42;18.70;;;13.60;;
15406;SDS011;7802;51.568;6.364;2022-11-14T19:15:50;17.00;;;13.37;;
15406;SDS011;7802;51.568;6.364;2022-11-14T19:31:14;18.13;;;13.57;;
15406;SDS011;7802;51.568;6.364;2022-11-14T19:34:48;19.27;;;14.07;;
15406;SDS011;7802;51.568;6.364;2022-11-14T19:38:19;19.83;;;14.13;;
15406;SDS011;7802;51.568;6.364;2022-11-14T19:41:50;17.70;;;14.10;;
15406;SDS011;7802;51.568;6.364;2022-11-14T19:44:57;18.37;;;14.07;;
15406;SDS011;7802;51.568;6.364;2022-11-14T19:57:42;18.17;;;13.20;;
15406;SDS011;7802;51.568;6.364;2022-11-14T20:05:34;16.27;;;13.00;;
15406;SDS011;7802;51.568;6.364;2022-11-14T20:08:40;16.67;;;13.67;;
15406;SDS011;7802;51.568;6.364;2022-11-14T20:20:56;17.73;;;12.47;;
15406;SDS011;7802;51.568;6.364;2022-11-14T20:30:12;17.97;;;12.47;;
15406;SDS011;7802;51.568;6.364;2022-11-14T20:33:18;16.53;;;12.67;;
15406;SDS011;7802;51.568;6.364;2022-11-14T20:36:24;17.00;;;12.90;;
15406;SDS011;7802;51.568;6.364;2022-11-14T20:39:39;16.27;;;13.10;;